Time;durP1;ratioP1;P1;durP2;ratioP2;P2;SDS_P1;SDS_P2;PMS_P1;PMS_P2;Temp;Humidity;BMP_temperature;BMP_pressure;BME280_temperature;BME280_humidity;BME280_pressure;Samples;Min_cycle;Max_cycle;Signal;HPM_P1;HPM_P2
2022/06/04 00:00:14;;;;;;;;;;;10.50;99.90;;;;;;4971035;28;19922;-71
2022/06/04 00:02:41;;;;;;;;;;;10.50;99.90;;;;;;4967057;28;19977;-71
2022/06/04 00:05:07;;;;;;;;;;;10.40;99.90;;;;;;4969492;28;20005;-71
2022/06/04 00:07:33;;;;;;;;;;;10.50;99.90;;;;;;4952750;28;19976;-71
2022/06/04 00:15:29;;;;;;;;;;;10.40;99.90;;;;;;4968981;28;19929;-71
2022/06/04 00:17:54;;;;;;;;;;;10.40;99.90;;;;;;4969906;28;20012;-70
2022/06/04 00:20:20;;;;;;;;;;;10.40;99.90;;;;;;4953635;28;19965;-71
2022/06/04 00:22:46;;;;;;;;;;;10.40;99.90;;;;;;4970314;28;20024;-71
2022/06/04 00:25:13;;;;;;;;;;;10.40;99.90;;;;;;4970060;28;20400;-71
2022/06/04 00:27:39;;;;;;;;;;;10.40;99.90;;;;;;4983690;28;19926;-71
2022/06/04 00:30:05;;;;;;;;;;;10.40;99.90;;;;;;4966387;28;19956;-71
2022/06/04 00:32:33;;;;;;;;;;;10.40;99.90;;;;;;4968220;28;19922;-71
2022/06/04 00:35:02;;;;;;;;;;;10.30;99.90;;;;;;4966783;28;20016;-71
2022/06/04 00:37:31;;;;;;;;;;;10.30;99.90;;;;;;4963976;28;20326;-71
2022/06/04 00:40:00;;;;;;;;;;;10.30;99.90;;;;;;4967125;28;19926;-71
2022/06/04 00:42:25;;;;;;;;;;;10.30;99.90;;;;;;4967087;28;19944;-70
2022/06/04 00:45:10;;;;;;;;;;;10.20;99.90;;;;;;4968059;28;20438;-71
2022/06/04 00:47:40;;;;;;;;;;;10.20;99.90;;;;;;4967442;28;20006;-70
2022/06/04 00:50:06;;;;;;;;;;;10.20;99.90;;;;;;4986417;28;20009;-71
2022/06/04 00:52:32;;;;;;;;;;;10.20;99.90;;;;;;4967326;28;20013;-71
2022/06/04 00:54:58;;;;;;;;;;;10.20;99.90;;;;;;4952186;28;19953;-71
2022/06/04 00:57:45;;;;;;;;;;;10.10;99.90;;;;;;4968248;28;19926;-71
2022/06/04 01:00:24;;;;;;;;;;;10.10;99.90;;;;;;4983786;28;19922;-71
2022/06/04 01:02:53;;;;;;;;;;;10.10;99.90;;;;;;4967712;28;19949;-71
2022/06/04 01:05:24;;;;;;;;;;;10.10;99.90;;;;;;4981131;28;19973;-71
2022/06/04 01:07:53;;;;;;;;;;;10.10;99.90;;;;;;4968885;28;20375;-71
2022/06/04 01:10:35;;;;;;;;;;;10.10;99.90;;;;;;4967166;28;19933;-70
2022/06/04 01:13:04;;;;;;;;;;;10.10;99.90;;;;;;4966276;28;19933;-71
2022/06/04 01:15:30;;;;;;;;;;;10.10;99.90;;;;;;4969160;28;19926;-70
2022/06/04 01:17:56;;;;;;;;;;;10.10;99.90;;;;;;4982493;28;20295;-71
2022/06/04 01:20:42;;;;;;;;;;;10.10;99.90;;;;;;4967170;28;20346;-71
2022/06/04 01:23:40;;;;;;;;;;;10.10;99.90;;;;;;4964829;28;19929;-71
2022/06/04 01:26:05;;;;;;;;;;;10.10;99.90;;;;;;4967112;28;19961;-71
2022/06/04 01:28:31;;;;;;;;;;;10.60;99.90;;;;;;4967053;28;20419;-71
2022/06/04 01:31:00;;;;;;;;;;;10.50;99.90;;;;;;4967876;28;20012;-71
2022/06/04 01:33:33;;;;;;;;;;;10.10;99.90;;;;;;4968804;28;19945;-71
2022/06/04 01:36:01;;;;;;;;;;;10.10;99.90;;;;;;4982480;28;19933;-71
2022/06/04 01:38:31;;;;;;;;;;;10.10;99.90;;;;;;4965286;28;19930;-71
2022/06/04 01:41:06;;;;;;;;;;;10.10;99.90;;;;;;4949321;28;19922;-71
2022/06/04 01:43:44;;;;;;;;;;;10.00;99.90;;;;;;4967993;28;20016;-71
2022/06/04 01:46:13;;;;;;;;;;;10.00;99.90;;;;;;4965099;28;19948;-71
2022/06/04 01:48:41;;;;;;;;;;;10.00;99.90;;;;;;4951823;28;19981;-71
2022/06/04 01:51:07;;;;;;;;;;;10.00;99.90;;;;;;4967888;28;19929;-70
2022/06/04 01:53:36;;;;;;;;;;;9.90;99.90;;;;;;4966092;28;19938;-71
2022/06/04 01:56:11;;;;;;;;;;;9.90;99.90;;;;;;4963976;28;20462;-71
2022/06/04 01:58:40;;;;;;;;;;;9.90;99.90;;;;;;4964917;28;19922;-71
2022/06/04 02:01:12;;;;;;;;;;;9.90;99.90;;;;;;4982407;28;19922;-71
2022/06/04 02:03:44;;;;;;;;;;;9.80;99.90;;;;;;4964042;28;19987;-71
2022/06/04 02:06:33;;;;;;;;;;;9.80;99.90;;;;;;4967099;28;19973;-71
2022/06/04 02:09:01;;;;;;;;;;;9.80;99.90;;;;;;4959740;28;20012;-71
2022/06/04 02:11:26;;;;;;;;;;;9.80;99.90;;;;;;4947389;28;19930;-71
2022/06/04 02:13:55;;;;;;;;;;;9.80;99.90;;;;;;4967732;28;20299;-71
2022/06/04 02:16:24;;;;;;;;;;;10.00;99.90;;;;;;4965217;28;19926;-71
2022/06/04 02:18:50;;;;;;;;;;;9.70;99.90;;;;;;4967285;28;20029;-71
2022/06/04 02:21:18;;;;;;;;;;;9.70;99.90;;;;;;4968121;28;20033;-71
2022/06/04 02:23:44;;;;;;;;;;;9.70;99.90;;;;;;4966927;28;19926;-71
2022/06/04 02:26:10;;;;;;;;;;;9.80;99.90;;;;;;4967729;28;19925;-71
2022/06/04 02:28:36;;;;;;;;;;;9.70;99.90;;;;;;4962902;28;20393;-71
2022/06/04 02:31:01;;;;;;;;;;;9.70;99.90;;;;;;4982618;28;20489;-71
2022/06/04 02:33:41;;;;;;;;;;;9.60;99.90;;;;;;4944916;28;19977;-71
2022/06/04 02:36:10;;;;;;;;;;;9.60;99.90;;;;;;4964336;28;19923;-71
2022/06/04 02:38:59;;;;;;;;;;;9.60;99.90;;;;;;4947634;28;20012;-71
2022/06/04 02:41:29;;;;;;;;;;;9.60;99.90;;;;;;4966410;28;19930;-71
2022/06/04 02:44:21;;;;;;;;;;;9.50;99.90;;;;;;4982741;28;19930;-70
2022/06/04 02:46:54;;;;;;;;;;;9.50;99.90;;;;;;4962860;28;19922;-70
2022/06/04 02:49:23;;;;;;;;;;;9.50;99.90;;;;;;4964691;28;19961;-71
2022/06/04 02:51:51;;;;;;;;;;;10.10;99.90;;;;;;4966052;28;19930;-70
2022/06/04 02:54:36;;;;;;;;;;;9.50;99.90;;;;;;4965972;28;19922;-70
2022/06/04 02:57:03;;;;;;;;;;;9.40;99.90;;;;;;4963610;28;19923;-71
2022/06/04 02:59:29;;;;;;;;;;;9.40;99.90;;;;;;4965071;28;20299;-72
2022/06/04 03:01:58;;;;;;;;;;;9.40;99.90;;;;;;4950247;28;19933;-70
2022/06/04 03:04:23;;;;;;;;;;;9.40;99.90;;;;;;4965895;28;20225;-71
2022/06/04 03:06:49;;;;;;;;;;;9.40;99.90;;;;;;4964804;28;19933;-71
2022/06/04 03:09:16;;;;;;;;;;;9.40;99.90;;;;;;4964525;28;19933;-70
2022/06/04 03:11:44;;;;;;;;;;;9.40;99.90;;;;;;4964057;28;20468;-70
2022/06/04 03:14:10;;;;;;;;;;;9.40;99.90;;;;;;4972042;28;20018;-71
2022/06/04 03:16:38;;;;;;;;;;;9.40;99.90;;;;;;4971404;28;20014;-70
2022/06/04 03:19:07;;;;;;;;;;;9.40;99.90;;;;;;4951208;28;19926;-70
2022/06/04 03:21:33;;;;;;;;;;;9.40;99.90;;;;;;4986201;28;19926;-71
2022/06/04 03:23:59;;;;;;;;;;;9.40;99.90;;;;;;4969265;28;19926;-71
2022/06/04 03:26:25;;;;;;;;;;;9.40;99.90;;;;;;4970299;28;19933;-70
2022/06/04 03:28:50;;;;;;;;;;;9.40;99.90;;;;;;4950071;28;19923;-71
2022/06/04 03:31:16;;;;;;;;;;;9.40;99.90;;;;;;4967817;28;19953;-70
2022/06/04 03:33:41;;;;;;;;;;;9.40;99.90;;;;;;4968254;28;20356;-71
2022/06/04 03:36:10;;;;;;;;;;;9.40;99.90;;;;;;4953310;28;20375;-71
2022/06/04 03:38:36;;;;;;;;;;;9.40;99.90;;;;;;4969364;28;20330;-71
2022/06/04 03:41:01;;;;;;;;;;;9.40;99.90;;;;;;4967698;28;19949;-70
2022/06/04 03:43:30;;;;;;;;;;;9.40;99.90;;;;;;4971445;28;19957;-70
2022/06/04 03:45:55;;;;;;;;;;;9.40;99.90;;;;;;4966113;28;19921;-71
2022/06/04 03:48:22;;;;;;;;;;;9.40;99.90;;;;;;4970400;28;20414;-71
2022/06/04 03:50:48;;;;;;;;;;;9.40;99.90;;;;;;4968218;28;19925;-71
2022/06/04 03:53:14;;;;;;;;;;;9.40;99.90;;;;;;4970014;28;19961;-71
2022/06/04 03:55:40;;;;;;;;;;;9.40;99.90;;;;;;4969223;28;20147;-71
2022/06/04 03:58:05;;;;;;;;;;;9.40;99.90;;;;;;4968591;28;19922;-71
2022/06/04 04:00:35;;;;;;;;;;;9.40;99.90;;;;;;4967721;28;20080;-71
2022/06/04 04:03:03;;;;;;;;;;;9.40;99.90;;;;;;4969934;28;19929;-71
2022/06/04 04:05:30;;;;;;;;;;;9.50;99.90;;;;;;4967838;28;20064;-71
2022/06/04 04:07:56;;;;;;;;;;;9.40;99.90;;;;;;4967998;28;19922;-71
2022/06/04 04:10:23;;;;;;;;;;;9.40;99.90;;;;;;5000067;28;19922;-71
2022/06/04 04:12:49;;;;;;;;;;;9.50;99.90;;;;;;4952208;28;19937;-71
2022/06/04 04:15:15;;;;;;;;;;;9.50;99.90;;;;;;4986395;28;20370;-71
2022/06/04 04:17:41;;;;;;;;;;;9.60;99.90;;;;;;4969707;28;19992;-71
2022/06/04 04:20:09;;;;;;;;;;;9.60;99.90;;;;;;4984309;28;20024;-71
2022/06/04 04:22:35;;;;;;;;;;;9.60;99.90;;;;;;4969021;28;19930;-70
2022/06/04 04:25:00;;;;;;;;;;;9.70;99.90;;;;;;4970415;28;19950;-71
2022/06/04 04:27:26;;;;;;;;;;;9.70;99.90;;;;;;4983746;28;19922;-71
2022/06/04 04:29:52;;;;;;;;;;;9.80;99.90;;;;;;4950723;28;19929;-71
2022/06/04 04:32:17;;;;;;;;;;;10.00;99.90;;;;;;4963136;28;19928;-71
2022/06/04 04:34:43;;;;;;;;;;;11.20;99.90;;;;;;4967323;28;19926;-71
2022/06/04 04:37:09;;;;;;;;;;;12.60;99.90;;;;;;4966881;28;19961;-71
2022/06/04 04:39:34;;;;;;;;;;;13.90;99.90;;;;;;4967549;28;20041;-71
2022/06/04 04:42:00;;;;;;;;;;;15.10;99.90;;;;;;4983621;28;20503;-71
2022/06/04 04:44:25;;;;;;;;;;;16.20;99.90;;;;;;4966880;28;19991;-71
2022/06/04 04:46:51;;;;;;;;;;;17.10;99.90;;;;;;4947830;28;19930;-71
2022/06/04 04:49:17;;;;;;;;;;;17.90;99.90;;;;;;4970521;28;19922;-71
2022/06/04 04:51:42;;;;;;;;;;;18.60;99.90;;;;;;4963473;28;20373;-71
2022/06/04 04:54:08;;;;;;;;;;;19.20;99.90;;;;;;4967584;28;20016;-71
2022/06/04 04:56:33;;;;;;;;;;;19.70;99.90;;;;;;4966080;28;20057;-71
2022/06/04 04:58:59;;;;;;;;;;;20.20;99.90;;;;;;4965743;28;20016;-71
2022/06/04 05:01:26;;;;;;;;;;;20.70;99.90;;;;;;4966294;28;19933;-72
2022/06/04 05:03:52;;;;;;;;;;;21.10;99.90;;;;;;4969087;28;19930;-72
2022/06/04 05:06:18;;;;;;;;;;;21.60;99.90;;;;;;4968425;28;19929;-72
2022/06/04 05:08:45;;;;;;;;;;;22.10;99.90;;;;;;4965270;28;20465;-71
2022/06/04 05:11:12;;;;;;;;;;;22.50;99.90;;;;;;4966397;28;19925;-71
2022/06/04 05:13:38;;;;;;;;;;;22.60;99.90;;;;;;4963223;28;19929;-71
2022/06/04 05:16:04;;;;;;;;;;;22.70;99.90;;;;;;4965170;28;19926;-71
2022/06/04 05:18:30;;;;;;;;;;;23.00;99.90;;;;;;4967786;28;19973;-70
2022/06/04 05:20:55;;;;;;;;;;;23.30;99.90;;;;;;4958552;28;20016;-71
2022/06/04 05:23:21;;;;;;;;;;;23.50;99.90;;;;;;4961463;28;19922;-71
2022/06/04 05:25:47;;;;;;;;;;;22.80;99.90;;;;;;4961084;28;19930;-71
2022/06/04 05:28:14;;;;;;;;;;;21.20;99.90;;;;;;4958194;28;19926;-70
2022/06/04 05:30:39;;;;;;;;;;;20.10;99.90;;;;;;4957378;28;19929;-71
2022/06/04 05:33:07;;;;;;;;;;;18.80;99.90;;;;;;4959371;28;19926;-71
2022/06/04 05:35:33;;;;;;;;;;;17.70;99.90;;;;;;4958609;28;20008;-72
2022/06/04 05:37:59;;;;;;;;;;;16.90;99.90;;;;;;4991410;28;20020;-71
2022/06/04 05:40:24;;;;;;;;;;;16.30;99.90;;;;;;4956034;28;20025;-71
2022/06/04 05:42:50;;;;;;;;;;;15.80;99.90;;;;;;4959299;28;19969;-71
2022/06/04 05:45:15;;;;;;;;;;;15.40;99.90;;;;;;4953307;28;19960;-71
2022/06/04 05:47:41;;;;;;;;;;;14.90;99.90;;;;;;4958901;28;19926;-71
2022/06/04 05:50:07;;;;;;;;;;;14.50;99.90;;;;;;4991126;28;19933;-73
2022/06/04 05:52:33;;;;;;;;;;;14.30;99.90;;;;;;4976202;28;20260;-71
2022/06/04 05:54:58;;;;;;;;;;;14.10;99.90;;;;;;4942722;28;19956;-71
2022/06/04 05:57:25;;;;;;;;;;;14.30;99.90;;;;;;4956320;28;20979;-71
2022/06/04 05:59:50;;;;;;;;;;;14.60;99.90;;;;;;4951475;28;19996;-71
2022/06/04 06:02:16;;;;;;;;;;;15.00;99.90;;;;;;4954698;28;19929;-70
2022/06/04 06:04:41;;;;;;;;;;;14.80;99.90;;;;;;4959020;28;20445;-71
2022/06/04 06:07:07;;;;;;;;;;;14.60;99.90;;;;;;4957958;28;19922;-71
2022/06/04 06:09:33;;;;;;;;;;;14.60;99.90;;;;;;4988910;28;20461;-71
2022/06/04 06:11:58;;;;;;;;;;;14.40;99.90;;;;;;4959240;28;21659;-71
2022/06/04 06:14:24;;;;;;;;;;;14.30;99.90;;;;;;4942208;28;20605;-72
2022/06/04 06:16:51;;;;;;;;;;;14.20;99.90;;;;;;4959667;28;20302;-71
2022/06/04 06:19:17;;;;;;;;;;;14.20;99.90;;;;;;4961089;28;19962;-71
2022/06/04 06:21:43;;;;;;;;;;;14.30;99.90;;;;;;4964557;28;19926;-70
2022/06/04 06:24:10;;;;;;;;;;;14.40;99.90;;;;;;4976374;28;19945;-70
2022/06/04 06:26:41;;;;;;;;;;;14.40;99.90;;;;;;4964052;28;20331;-71
2022/06/04 06:29:06;;;;;;;;;;;14.40;99.90;;;;;;4961789;28;20372;-70
2022/06/04 06:31:33;;;;;;;;;;;14.40;99.90;;;;;;4963655;28;19929;-70
2022/06/04 06:33:58;;;;;;;;;;;14.40;99.90;;;;;;4961153;28;19926;-70
2022/06/04 06:36:24;;;;;;;;;;;14.40;99.90;;;;;;4965059;28;19925;-70
2022/06/04 06:38:50;;;;;;;;;;;14.30;99.90;;;;;;4993026;28;19926;-70
2022/06/04 06:41:18;;;;;;;;;;;14.30;99.90;;;;;;4961305;28;19976;-70
2022/06/04 06:43:46;;;;;;;;;;;14.30;99.90;;;;;;4957733;28;19926;-70
2022/06/04 06:46:18;;;;;;;;;;;14.30;99.90;;;;;;4959647;28;20509;-70
2022/06/04 06:48:44;;;;;;;;;;;14.30;99.90;;;;;;4956451;28;19937;-70
2022/06/04 06:51:24;;;;;;;;;;;14.20;99.90;;;;;;4957771;28;19930;-70
2022/06/04 06:53:50;;;;;;;;;;;14.20;99.90;;;;;;4960844;28;20652;-71
2022/06/04 06:56:20;;;;;;;;;;;14.10;99.90;;;;;;4966074;28;19930;-69
2022/06/04 06:58:46;;;;;;;;;;;14.10;99.90;;;;;;4960900;28;19933;-70
2022/06/04 07:01:12;;;;;;;;;;;14.10;99.90;;;;;;4962301;28;20302;-69
2022/06/04 07:03:38;;;;;;;;;;;14.40;99.90;;;;;;4964147;28;19933;-70
2022/06/04 07:06:05;;;;;;;;;;;14.10;99.90;;;;;;4965989;28;19930;-70
2022/06/04 07:08:33;;;;;;;;;;;14.20;99.90;;;;;;4962011;28;19926;-70
2022/06/04 07:10:58;;;;;;;;;;;14.40;99.90;;;;;;4967277;28;20343;-70
2022/06/04 07:13:24;;;;;;;;;;;14.60;99.90;;;;;;4964768;28;19930;-69
2022/06/04 07:15:49;;;;;;;;;;;14.80;99.90;;;;;;4963599;28;19929;-69
2022/06/04 07:18:15;;;;;;;;;;;15.10;99.90;;;;;;4964566;28;19930;-70
2022/06/04 07:20:42;;;;;;;;;;;15.30;99.90;;;;;;4963952;28;19997;-70
2022/06/04 07:23:08;;;;;;;;;;;15.90;99.90;;;;;;4964212;28;19957;-71
2022/06/04 07:25:33;;;;;;;;;;;16.50;99.90;;;;;;4981114;28;20327;-70
2022/06/04 07:27:59;;;;;;;;;;;16.70;99.90;;;;;;4963616;28;19926;-71
2022/06/04 07:30:25;;;;;;;;;;;16.70;99.90;;;;;;4980534;28;19933;-70
2022/06/04 07:32:51;;;;;;;;;;;16.60;99.90;;;;;;4962134;28;20474;-71
2022/06/04 07:35:17;;;;;;;;;;;16.50;99.90;;;;;;4963454;28;20020;-70
2022/06/04 07:37:43;;;;;;;;;;;16.40;99.90;;;;;;4945292;28;19933;-68
2022/06/04 07:40:09;;;;;;;;;;;16.60;99.90;;;;;;4948439;28;19933;-70
2022/06/04 07:42:35;;;;;;;;;;;16.80;99.90;;;;;;4962745;28;20507;-71
2022/06/04 07:45:00;;;;;;;;;;;17.10;99.90;;;;;;4961971;28;19922;-71
2022/06/04 07:47:26;;;;;;;;;;;17.40;99.90;;;;;;4962877;28;19926;-69
2022/06/04 07:49:54;;;;;;;;;;;17.40;99.90;;;;;;4957232;28;19926;-69
2022/06/04 07:52:20;;;;;;;;;;;17.40;99.90;;;;;;4967300;28;20045;-68
2022/06/04 07:54:45;;;;;;;;;;;17.60;99.90;;;;;;4963714;28;20021;-69
2022/06/04 07:57:11;;;;;;;;;;;17.80;99.90;;;;;;4978503;23;19922;-74
2022/06/04 07:59:36;;;;;;;;;;;17.90;99.90;;;;;;4963686;28;20049;-71
2022/06/04 08:02:02;;;;;;;;;;;18.10;99.90;;;;;;4960432;28;20171;-76
2022/06/04 08:04:28;;;;;;;;;;;18.30;99.90;;;;;;4963452;28;19925;-75
2022/06/04 08:06:54;;;;;;;;;;;18.50;99.90;;;;;;4964574;28;19926;-76
2022/06/04 08:09:20;;;;;;;;;;;18.60;99.90;;;;;;4965328;28;19933;-74
2022/06/04 08:11:46;;;;;;;;;;;18.60;99.90;;;;;;4950904;28;19994;-77
2022/06/04 08:14:19;;;;;;;;;;;18.60;99.90;;;;;;4949118;28;19926;-75
2022/06/04 08:16:51;;;;;;;;;;;18.50;99.90;;;;;;4967404;28;19926;-74
2022/06/04 08:19:17;;;;;;;;;;;18.50;99.90;;;;;;4969462;28;19922;-75
2022/06/04 08:21:43;;;;;;;;;;;18.60;99.90;;;;;;4969458;28;20003;-75
2022/06/04 08:24:09;;;;;;;;;;;18.80;99.90;;;;;;4968942;28;19926;-74
2022/06/04 08:26:35;;;;;;;;;;;19.00;99.90;;;;;;4967356;28;19929;-77
2022/06/04 08:29:00;;;;;;;;;;;19.00;99.90;;;;;;4969535;28;19981;-77
2022/06/04 08:31:26;;;;;;;;;;;19.10;99.90;;;;;;4969944;28;20459;-76
2022/06/04 08:33:52;;;;;;;;;;;19.30;99.90;;;;;;4968021;28;19926;-82
2022/06/04 08:36:19;;;;;;;;;;;19.50;99.90;;;;;;4969605;28;19929;-75
2022/06/04 08:38:45;;;;;;;;;;;19.30;99.90;;;;;;4968229;28;20417;-79
2022/06/04 08:41:40;;;;;;;;;;;19.20;99.90;;;;;;4967964;28;19922;-75
2022/06/04 08:44:26;;;;;;;;;;;19.10;99.90;;;;;;4947177;28;19930;-80
2022/06/04 08:46:54;;;;;;;;;;;19.10;99.90;;;;;;4968199;28;19933;-76
2022/06/04 08:49:29;;;;;;;;;;;18.90;99.90;;;;;;4968967;28;19984;-76
2022/06/04 08:51:55;;;;;;;;;;;18.80;99.90;;;;;;4967703;28;19930;-77
2022/06/04 09:00:00;;;;;;;;;;;18.70;99.90;;;;;;4967835;28;20237;-76
2022/06/04 09:02:33;;;;;;;;;;;18.50;99.90;;;;;;4953768;28;19965;-78
2022/06/04 09:05:23;;;;;;;;;;;18.60;99.90;;;;;;4966790;28;20335;-77
2022/06/04 09:07:50;;;;;;;;;;;18.80;99.90;;;;;;4970422;28;19933;-78
2022/06/04 09:10:15;;;;;;;;;;;18.90;99.90;;;;;;4970296;28;19973;-77
2022/06/04 09:12:46;;;;;;;;;;;18.90;99.90;;;;;;4953048;28;20036;-76
2022/06/04 09:15:18;;;;;;;;;;;18.80;99.90;;;;;;4966504;28;19922;-78
2022/06/04 09:17:53;;;;;;;;;;;18.80;99.90;;;;;;4952615;28;19925;-77
2022/06/04 09:20:26;;;;;;;;;;;18.80;99.90;;;;;;4969344;28;19929;-75
2022/06/04 09:22:53;;;;;;;;;;;18.70;99.90;;;;;;4973242;28;19926;-80
2022/06/04 09:25:22;;;;;;;;;;;18.60;99.90;;;;;;4970474;28;19933;-73
2022/06/04 09:27:59;;;;;;;;;;;18.50;99.90;;;;;;4970153;28;19922;-74
2022/06/04 09:30:48;;;;;;;;;;;18.40;99.90;;;;;;4969176;28;19969;-79
2022/06/04 09:33:24;;;;;;;;;;;18.10;99.90;;;;;;4955332;28;20060;-77
2022/06/04 09:35:53;;;;;;;;;;;18.00;99.90;;;;;;4971156;28;19926;-75
2022/06/04 09:38:22;;;;;;;;;;;18.20;99.90;;;;;;4969850;28;19926;-78
2022/06/04 09:40:55;;;;;;;;;;;18.40;99.90;;;;;;4953313;28;20292;-76
2022/06/04 09:43:20;;;;;;;;;;;18.70;99.90;;;;;;4970928;28;20328;-77
2022/06/04 09:45:53;;;;;;;;;;;18.80;99.90;;;;;;4968652;28;19953;-75
2022/06/04 09:48:24;;;;;;;;;;;18.90;99.90;;;;;;4969695;28;19937;-77
2022/06/04 09:50:52;;;;;;;;;;;19.00;99.90;;;;;;4969667;28;19925;-78
2022/06/04 09:53:25;;;;;;;;;;;19.20;99.90;;;;;;4968956;28;19941;-73
2022/06/04 09:55:53;;;;;;;;;;;19.30;99.90;;;;;;4970709;28;19922;-78
2022/06/04 09:58:29;;;;;;;;;;;19.40;99.90;;;;;;4967985;28;19926;-75
2022/06/04 10:00:55;;;;;;;;;;;19.50;99.90;;;;;;4967919;28;20303;-77
2022/06/04 10:03:22;;;;;;;;;;;19.70;99.90;;;;;;4969212;28;19922;-78
2022/06/04 10:05:53;;;;;;;;;;;19.70;99.90;;;;;;4967955;28;20387;-79
2022/06/04 10:08:21;;;;;;;;;;;19.50;99.90;;;;;;4967841;28;19984;-75
2022/06/04 10:10:46;;;;;;;;;;;19.60;99.90;;;;;;4952258;28;19922;-77
2022/06/04 10:15:58;;;;;;;;;;;20.00;99.90;;;;;;4968814;28;19922;-76
2022/06/04 10:18:31;;;;;;;;;;;20.00;99.90;;;;;;4969596;28;19988;-77
2022/06/04 10:21:03;;;;;;;;;;;20.00;99.90;;;;;;4968758;28;19921;-77
2022/06/04 10:23:30;;;;;;;;;;;19.90;99.90;;;;;;4967657;28;20291;-77
2022/06/04 10:25:55;;;;;;;;;;;19.80;99.90;;;;;;4966725;28;19925;-79
2022/06/04 10:28:21;;;;;;;;;;;19.80;99.90;;;;;;4952577;28;20016;-73
2022/06/04 10:31:02;;;;;;;;;;;19.90;99.90;;;;;;4968825;28;20615;-78
2022/06/04 10:33:27;;;;;;;;;;;20.00;99.90;;;;;;4967938;28;19922;-75
2022/06/04 10:35:53;;;;;;;;;;;20.20;99.90;;;;;;4969781;28;20381;-78
2022/06/04 10:38:26;;;;;;;;;;;20.20;99.90;;;;;;4952359;28;20453;-80
2022/06/04 10:40:52;;;;;;;;;;;20.40;99.90;;;;;;4966613;28;19926;-77
2022/06/04 10:43:24;;;;;;;;;;;20.50;99.90;;;;;;4966887;28;20040;-74
2022/06/04 10:45:52;;;;;;;;;;;20.50;99.90;;;;;;4967733;28;20040;-76
2022/06/04 10:48:24;;;;;;;;;;;20.30;99.90;;;;;;4967346;28;20382;-74
2022/06/04 10:53:53;;;;;;;;;;;20.40;99.90;;;;;;4999500;28;19921;-75
2022/06/04 10:56:32;;;;;;;;;;;20.30;99.90;;;;;;4967872;28;19934;-75
2022/06/04 10:59:02;;;;;;;;;;;20.20;99.90;;;;;;4968548;28;19928;-77
2022/06/04 11:01:31;;;;;;;;;;;20.10;99.90;;;;;;4966857;28;20295;-76
2022/06/04 11:04:01;;;;;;;;;;;20.10;99.90;;;;;;4968058;28;19936;-74
2022/06/04 11:06:29;;;;;;;;;;;20.10;99.90;;;;;;4951918;28;19925;-75
2022/06/04 11:08:58;;;;;;;;;;;20.10;99.90;;;;;;4951967;28;19930;-76
2022/06/04 11:11:47;;;;;;;;;;;20.10;99.90;;;;;;4969407;28;19980;-75
2022/06/04 11:14:16;;;;;;;;;;;20.20;99.90;;;;;;4964273;28;19926;-74
2022/06/04 11:16:56;;;;;;;;;;;20.00;99.90;;;;;;4967723;28;20399;-78
2022/06/04 11:19:35;;;;;;;;;;;20.00;99.90;;;;;;4966972;28;19937;-77
2022/06/04 11:22:10;;;;;;;;;;;19.90;99.90;;;;;;4951702;28;20004;-76
2022/06/04 11:24:39;;;;;;;;;;;19.80;99.90;;;;;;4965720;28;20017;-75
2022/06/04 11:27:24;;;;;;;;;;;19.80;99.90;;;;;;4968021;28;19929;-76
2022/06/04 11:29:52;;;;;;;;;;;20.00;99.90;;;;;;4949943;28;19926;-75
2022/06/04 11:32:29;;;;;;;;;;;19.90;99.90;;;;;;4955766;28;19922;-74
2022/06/04 11:35:04;;;;;;;;;;;19.80;99.90;;;;;;4971963;28;19933;-75
2022/06/04 11:37:48;;;;;;;;;;;19.70;99.90;;;;;;4973259;28;20347;-77
2022/06/04 11:40:52;;;;;;;;;;;19.80;99.90;;;;;;4955404;28;20437;-75
2022/06/04 11:43:17;;;;;;;;;;;19.90;99.90;;;;;;4973825;28;19921;-78
2022/06/04 11:46:01;;;;;;;;;;;19.90;99.90;;;;;;4972933;28;20450;-78
2022/06/04 11:48:59;;;;;;;;;;;20.00;99.90;;;;;;4952460;28;19929;-76
2022/06/04 11:51:43;;;;;;;;;;;19.90;99.90;;;;;;4980539;28;19910;-76
2022/06/04 11:54:21;;;;;;;;;;;19.90;99.90;;;;;;4993057;28;19926;-76
2022/06/04 11:56:57;;;;;;;;;;;20.00;99.90;;;;;;4993165;28;19969;-76
2022/06/04 11:59:34;;;;;;;;;;;19.90;99.90;;;;;;4985891;28;20174;-79
2022/06/04 12:02:19;;;;;;;;;;;19.80;99.90;;;;;;4971280;28;20299;-77
2022/06/04 12:04:50;;;;;;;;;;;19.80;99.90;;;;;;4971199;28;19925;-76
2022/06/04 12:07:26;;;;;;;;;;;19.80;99.90;;;;;;4971569;28;20376;-77
2022/06/04 12:09:55;;;;;;;;;;;19.70;99.90;;;;;;4971549;28;20053;-76
2022/06/04 12:12:24;;;;;;;;;;;19.80;99.90;;;;;;4967805;28;19922;-75
2022/06/04 12:14:54;;;;;;;;;;;19.70;99.90;;;;;;4981794;28;19926;-76
2022/06/04 12:17:25;;;;;;;;;;;19.60;99.90;;;;;;4968574;28;19933;-74
2022/06/04 12:25:36;;;;;;;;;;;19.70;99.90;;;;;;4970925;28;19929;-75
2022/06/04 12:28:03;;;;;;;;;;;19.80;99.90;;;;;;4965972;28;20468;-75
2022/06/04 12:30:38;;;;;;;;;;;19.70;99.90;;;;;;4964404;28;19930;-72
2022/06/04 12:33:08;;;;;;;;;;;19.70;99.90;;;;;;4951209;28;19933;-77
2022/06/04 12:35:34;;;;;;;;;;;19.80;99.90;;;;;;4968108;28;19929;-75
2022/06/04 12:37:59;;;;;;;;;;;19.90;99.90;;;;;;4953820;28;20619;-76
2022/06/04 12:40:28;;;;;;;;;;;19.80;99.90;;;;;;4983281;28;19950;-76
2022/06/04 12:43:13;;;;;;;;;;;19.80;99.90;;;;;;4984763;28;19925;-76
2022/06/04 12:45:41;;;;;;;;;;;19.80;99.90;;;;;;4969773;28;19937;-76
2022/06/04 12:48:19;;;;;;;;;;;19.90;99.90;;;;;;4963921;28;19930;-74
2022/06/04 12:50:47;;;;;;;;;;;19.90;99.90;;;;;;4984291;28;20201;-73
2022/06/04 12:53:16;;;;;;;;;;;19.80;99.90;;;;;;4972339;28;19929;-75
2022/06/04 12:55:47;;;;;;;;;;;19.70;99.90;;;;;;4967823;28;19926;-73
2022/06/04 12:58:32;;;;;;;;;;;19.70;99.90;;;;;;4952219;28;20021;-73
2022/06/04 13:00:58;;;;;;;;;;;19.60;99.90;;;;;;4976289;28;19984;-73
2022/06/04 13:03:40;;;;;;;;;;;19.70;99.90;;;;;;4968798;28;19929;-75
2022/06/04 13:06:12;;;;;;;;;;;19.80;99.90;;;;;;4968781;28;19992;-73
2022/06/04 13:08:53;;;;;;;;;;;19.50;99.90;;;;;;4952229;28;19926;-75
2022/06/04 13:11:22;;;;;;;;;;;19.40;99.90;;;;;;4971993;28;19932;-75
2022/06/04 13:14:01;;;;;;;;;;;19.30;99.90;;;;;;4969901;28;19929;-76
2022/06/04 13:16:29;;;;;;;;;;;19.40;99.90;;;;;;4955145;28;20291;-74
2022/06/04 13:19:06;;;;;;;;;;;19.40;99.90;;;;;;4968759;28;19933;-75
2022/06/04 13:21:33;;;;;;;;;;;19.60;99.90;;;;;;4969299;28;19937;-73
2022/06/04 13:24:04;;;;;;;;;;;19.70;99.90;;;;;;4967760;28;19998;-75
2022/06/04 13:26:39;;;;;;;;;;;19.70;99.90;;;;;;4966954;28;19926;-73
2022/06/04 13:29:24;;;;;;;;;;;19.80;99.90;;;;;;4982274;28;19921;-76
2022/06/04 13:31:55;;;;;;;;;;;20.00;99.90;;;;;;4966094;28;19926;-75
2022/06/04 13:34:26;;;;;;;;;;;19.90;99.90;;;;;;4960452;28;19933;-74
2022/06/04 13:36:56;;;;;;;;;;;19.80;99.90;;;;;;4980720;28;19976;-77
2022/06/04 13:39:22;;;;;;;;;;;19.80;99.90;;;;;;4965064;28;19926;-75
2022/06/04 13:42:01;;;;;;;;;;;20.00;99.90;;;;;;4949534;28;19937;-73
2022/06/04 13:44:26;;;;;;;;;;;20.10;99.90;;;;;;4962496;28;19922;-74
2022/06/04 13:46:52;;;;;;;;;;;20.20;99.90;;;;;;4957364;28;19937;-71
2022/06/04 13:49:26;;;;;;;;;;;20.10;99.90;;;;;;4949878;28;19966;-73
2022/06/04 13:51:57;;;;;;;;;;;19.80;99.90;;;;;;4950577;28;19949;-73
2022/06/04 13:54:25;;;;;;;;;;;19.60;99.90;;;;;;4960982;28;19925;-74
2022/06/04 13:56:51;;;;;;;;;;;19.50;99.90;;;;;;4963110;28;20742;-73
2022/06/04 13:59:26;;;;;;;;;;;19.50;99.90;;;;;;4963505;28;19926;-75
2022/06/04 14:01:55;;;;;;;;;;;19.60;99.90;;;;;;4960964;28;20054;-73
2022/06/04 14:07:12;;;;;;;;;;;19.50;99.90;;;;;;4963719;28;19926;-72
2022/06/04 14:09:38;;;;;;;;;;;19.30;99.90;;;;;;4961942;28;19937;-71
2022/06/04 14:12:27;;;;;;;;;;;19.20;99.90;;;;;;4961348;28;19934;-72
2022/06/04 14:15:11;;;;;;;;;;;19.10;99.90;;;;;;4976017;28;19988;-72
2022/06/04 14:17:37;;;;;;;;;;;19.00;99.90;;;;;;4960211;28;20412;-74
2022/06/04 14:20:21;;;;;;;;;;;18.90;99.90;;;;;;4961988;28;20021;-73
2022/06/04 14:22:52;;;;;;;;;;;18.80;99.90;;;;;;4962162;28;20020;-73
2022/06/04 14:25:22;;;;;;;;;;;18.80;99.90;;;;;;4958814;28;19950;-74
2022/06/04 14:27:57;;;;;;;;;;;18.80;99.90;;;;;;4961188;28;20020;-72
2022/06/04 14:30:22;;;;;;;;;;;18.70;99.90;;;;;;4941335;28;21880;-74
2022/06/04 14:32:51;;;;;;;;;;;18.80;99.90;;;;;;4959548;28;19926;-71
2022/06/04 14:35:33;;;;;;;;;;;19.00;99.90;;;;;;4962042;28;20284;-72
2022/06/04 14:38:00;;;;;;;;;;;18.90;99.90;;;;;;4962686;28;19932;-73
2022/06/04 14:40:34;;;;;;;;;;;18.80;99.90;;;;;;4962768;28;19929;-72
2022/06/04 14:43:20;;;;;;;;;;;18.80;99.90;;;;;;4959725;28;19930;-74
2022/06/04 14:46:12;;;;;;;;;;;18.70;99.90;;;;;;4975426;28;19926;-74
2022/06/04 14:48:49;;;;;;;;;;;18.70;99.90;;;;;;4959686;28;19930;-72
2022/06/04 14:51:25;;;;;;;;;;;18.60;99.90;;;;;;4960991;28;19926;-73
2022/06/04 14:53:53;;;;;;;;;;;18.60;99.90;;;;;;4961092;28;20379;-73
2022/06/04 14:56:22;;;;;;;;;;;18.60;99.90;;;;;;4962838;28;19926;-73
2022/06/04 14:58:59;;;;;;;;;;;18.60;99.90;;;;;;4960542;28;19926;-73